createdAt,value
2022-08-05T00:00:33.651Z,20.50
2022-08-05T00:01:35.938Z,20.52
2022-08-05T00:02:33.648Z,20.49
2022-08-05T00:03:33.478Z,20.39
2022-08-05T00:04:33.434Z,20.42
2022-08-05T00:06:05.259Z,20.39
2022-08-05T00:06:35.912Z,20.44
2022-08-05T00:07:59.625Z,20.46
2022-08-05T00:08:35.439Z,20.42
2022-08-05T00:09:33.223Z,20.42
2022-08-05T00:10:33.179Z,20.50
2022-08-05T00:11:47.488Z,20.46
2022-08-05T00:12:33.094Z,20.42
2022-08-05T00:13:38.942Z,20.42
2022-08-05T00:14:33.012Z,20.48
2022-08-05T00:15:56.310Z,20.36
2022-08-05T00:16:36.139Z,20.48
2022-08-05T00:17:33.294Z,20.36
2022-08-05T00:18:32.838Z,20.36
2022-08-05T00:19:40.703Z,20.42
2022-08-05T00:20:32.751Z,20.46
2022-08-05T00:21:35.881Z,20.33
2022-08-05T00:22:32.668Z,20.24
2022-08-05T00:23:46.968Z,20.34
2022-08-05T00:24:32.582Z,20.32
2022-08-05T00:25:45.403Z,20.32
2022-08-05T00:26:32.498Z,20.24
2022-08-05T00:27:36.563Z,20.32
2022-08-05T00:28:32.948Z,20.39
2022-08-05T00:29:37.736Z,20.34
2022-08-05T00:30:32.325Z,20.22
2022-08-05T00:31:54.456Z,20.29
2022-08-05T00:32:32.245Z,20.22
2022-08-05T00:34:53.756Z,20.29
2022-08-05T00:34:55.635Z,20.34
2022-08-05T00:35:33.205Z,20.29
2022-08-05T00:37:10.421Z,20.24
2022-08-05T00:37:35.706Z,20.29
2022-08-05T00:38:34.076Z,20.30
2022-08-05T00:39:37.038Z,20.30
2022-08-05T00:40:31.898Z,20.24
2022-08-05T00:41:51.790Z,20.21
2022-08-05T00:42:32.475Z,20.18
2022-08-05T00:43:46.658Z,20.21
2022-08-05T00:44:31.726Z,20.21
2022-08-05T00:45:42.988Z,20.21
2022-08-05T00:47:56.530Z,20.26
2022-08-05T00:48:31.806Z,20.27
2022-08-05T00:49:32.372Z,20.19
2022-08-05T00:50:31.470Z,20.26
2022-08-05T00:51:50.807Z,20.17
2022-08-05T00:52:31.385Z,20.08
2022-08-05T00:53:45.306Z,20.21
2022-08-05T00:54:31.299Z,20.11
2022-08-05T00:55:42.455Z,20.19
2022-08-05T00:56:31.217Z,20.19
2022-08-05T00:57:38.419Z,20.22
2022-08-05T00:58:31.129Z,20.18
2022-08-05T00:59:34.592Z,20.19
2022-08-05T01:00:31.476Z,20.11
2022-08-05T01:01:42.775Z,20.07
2022-08-05T01:02:30.958Z,20.15
2022-08-05T01:03:34.108Z,20.12
2022-08-05T01:04:30.871Z,20.11
2022-08-05T01:05:30.826Z,20.02
2022-08-05T01:06:32.517Z,20.11
2022-08-05T01:07:31.740Z,20.11
2022-08-05T01:08:43.344Z,20.07
2022-08-05T01:09:30.656Z,20.07
2022-08-05T01:10:30.627Z,20.08
2022-08-05T01:11:33.434Z,20.11
2022-08-05T01:12:30.528Z,20.18
2022-08-05T01:13:58.421Z,20.11
2022-08-05T01:14:30.448Z,20.11
2022-08-05T01:15:36.315Z,20.10
2022-08-05T01:16:30.355Z,20.08
2022-08-05T01:17:30.312Z,20.15
2022-08-05T01:18:30.272Z,20.07
2022-08-05T01:19:56.967Z,20.10
2022-08-05T01:20:30.185Z,20.11
2022-08-05T01:21:38.184Z,20.14
2022-08-05T01:22:30.098Z,20.00
2022-08-05T01:23:34.776Z,20.14
2022-08-05T01:24:30.241Z,19.97
2022-08-05T01:25:40.889Z,19.97
2022-08-05T01:26:29.932Z,19.99
2022-08-05T01:27:29.884Z,20.02
2022-08-05T01:28:29.963Z,20.00
2022-08-05T01:29:30.651Z,19.97
2022-08-05T01:30:34.667Z,19.96
2022-08-05T01:31:29.713Z,20.03
2022-08-05T01:32:29.669Z,20.00
2022-08-05T01:33:35.128Z,19.97
2022-08-05T01:34:29.583Z,19.94
2022-08-05T01:35:51.111Z,19.99
2022-08-05T01:36:29.496Z,19.99
2022-08-05T01:37:29.762Z,19.99
2022-08-05T01:38:30.021Z,19.97
2022-08-05T01:39:46.321Z,19.97
2022-08-05T01:40:29.325Z,19.97
2022-08-05T01:41:29.282Z,19.92
2022-08-05T01:42:29.239Z,19.89
2022-08-05T01:43:29.196Z,19.97
2022-08-05T01:44:34.400Z,19.94
2022-08-05T01:45:34.972Z,19.89
2022-08-05T01:46:42.208Z,19.84
2022-08-05T01:47:39.700Z,19.93
2022-08-05T01:48:28.981Z,19.89
2022-08-05T01:49:59.990Z,19.92
2022-08-05T01:50:29.656Z,19.90
2022-08-05T01:51:30.044Z,19.92
2022-08-05T01:53:58.333Z,19.82
2022-08-05T01:54:28.723Z,19.89
2022-08-05T01:55:28.681Z,19.81
2022-08-05T01:58:09.772Z,19.87
2022-08-05T01:58:12.156Z,19.85
2022-08-05T01:58:29.819Z,19.90
2022-08-05T01:59:28.510Z,19.82
2022-08-05T02:00:29.881Z,19.78
2022-08-05T02:01:28.467Z,19.87
2022-08-05T02:02:28.779Z,19.84
2022-08-05T02:03:31.745Z,19.77
2022-08-05T02:04:28.293Z,19.82
2022-08-05T02:05:28.555Z,19.81
2022-08-05T02:06:37.599Z,19.82
2022-08-05T02:07:30.494Z,19.81
2022-08-05T02:08:30.685Z,19.77
2022-08-05T02:09:28.237Z,19.81
2022-08-05T02:10:28.710Z,19.74
2022-08-05T02:11:33.152Z,19.84
2022-08-05T02:12:27.949Z,19.78
2022-08-05T02:13:27.907Z,19.78
2022-08-05T02:14:27.861Z,19.77
2022-08-05T02:15:31.190Z,19.79
2022-08-05T02:16:27.777Z,19.82
2022-08-05T02:18:28.136Z,19.85
2022-08-05T02:18:34.291Z,19.75
2022-08-05T02:19:27.647Z,19.82
2022-08-05T02:20:27.605Z,19.79
2022-08-05T02:21:27.562Z,19.82
2022-08-05T02:22:27.579Z,19.81
2022-08-05T02:23:27.474Z,19.79
2022-08-05T02:24:27.430Z,19.75
2022-08-05T02:25:27.388Z,19.81
2022-08-05T02:26:27.344Z,19.74
2022-08-05T02:27:30.162Z,19.78
2022-08-05T02:28:27.257Z,19.75
2022-08-05T02:29:58.226Z,19.78
2022-08-05T02:31:27.151Z,19.85
2022-08-05T02:32:30.806Z,19.77
2022-08-05T02:33:36.125Z,19.89
2022-08-05T02:34:27.000Z,19.85
2022-08-05T02:35:28.084Z,19.75
2022-08-05T02:36:27.457Z,19.75
2022-08-05T02:37:26.871Z,19.87
2022-08-05T02:38:27.060Z,19.84
2022-08-05T02:39:26.834Z,19.77
2022-08-05T02:40:26.741Z,19.85
2022-08-05T02:41:28.451Z,19.81
2022-08-05T02:42:30.687Z,19.79
2022-08-05T02:43:26.614Z,19.77
2022-08-05T02:44:26.571Z,19.85
2022-08-05T02:45:26.526Z,19.82
2022-08-05T02:46:27.415Z,19.79
2022-08-05T02:47:26.444Z,19.78
2022-08-05T02:48:29.235Z,19.82
2022-08-05T02:49:26.354Z,19.74
2022-08-05T02:50:26.313Z,19.82
2022-08-05T02:51:28.512Z,19.71
2022-08-05T02:52:30.655Z,19.72
2022-08-05T02:53:26.180Z,19.72
2022-08-05T02:54:34.782Z,19.71
2022-08-05T02:55:54.139Z,19.71
2022-08-05T02:56:26.052Z,19.74
2022-08-05T02:58:09.833Z,19.70
2022-08-05T02:58:26.774Z,19.66
2022-08-05T02:59:27.114Z,19.72
2022-08-05T03:00:26.981Z,19.63
2022-08-05T03:01:27.011Z,19.70
2022-08-05T03:02:27.574Z,19.64
2022-08-05T03:03:25.751Z,19.59
2022-08-05T03:04:25.710Z,19.59
2022-08-05T03:06:56.735Z,19.62
2022-08-05T03:06:57.024Z,19.55
2022-08-05T03:08:00.292Z,19.48
2022-08-05T03:08:29.570Z,19.53
2022-08-05T03:09:27.133Z,19.49
2022-08-05T03:10:25.449Z,19.52
2022-08-05T03:11:55.079Z,19.52
2022-08-05T03:12:25.362Z,19.47
2022-08-05T03:13:27.529Z,19.55
2022-08-05T03:14:25.277Z,19.47
2022-08-05T03:15:25.231Z,19.44
2022-08-05T03:16:25.198Z,19.41
2022-08-05T03:17:25.519Z,19.42
2022-08-05T03:18:29.980Z,19.37
2022-08-05T03:19:33.916Z,19.37
2022-08-05T03:20:25.228Z,19.35
2022-08-05T03:21:28.946Z,19.35
2022-08-05T03:22:32.291Z,19.32
2022-08-05T03:23:24.885Z,19.27
2022-08-05T03:24:29.348Z,19.24
2022-08-05T03:26:03.658Z,19.22
2022-08-05T03:26:31.378Z,19.29
2022-08-05T03:27:29.497Z,19.19
2022-08-05T03:28:24.676Z,19.17
2022-08-05T03:29:24.630Z,19.20
2022-08-05T03:30:28.692Z,19.17
2022-08-05T03:31:56.932Z,19.20
2022-08-05T03:32:31.042Z,19.17
2022-08-05T03:33:24.451Z,19.12
2022-08-05T03:34:24.598Z,19.16
2022-08-05T03:35:24.367Z,19.22
2022-08-05T03:36:30.357Z,19.20
2022-08-05T03:37:24.450Z,19.19
2022-08-05T03:38:33.157Z,19.12
2022-08-05T03:39:26.869Z,19.09
2022-08-05T03:40:32.418Z,19.09
2022-08-05T03:41:24.106Z,19.16
2022-08-05T03:42:24.066Z,19.09
2022-08-05T03:44:09.178Z,19.07
2022-08-05T03:44:23.979Z,19.07
2022-08-05T03:45:23.935Z,19.12
2022-08-05T03:46:23.893Z,19.11
2022-08-05T03:47:24.260Z,19.07
2022-08-05T03:48:23.803Z,19.15
2022-08-05T03:49:24.263Z,19.11
2022-08-05T03:50:23.718Z,19.07
2022-08-05T03:52:36.907Z,19.04
2022-08-05T03:52:38.978Z,19.09
2022-08-05T03:55:51.937Z,19.04
2022-08-05T03:55:53.225Z,19.08
2022-08-05T03:56:05.654Z,19.07
2022-08-05T03:56:27.903Z,19.09
2022-08-05T03:57:42.653Z,19.09
2022-08-05T03:58:28.886Z,19.05
2022-08-05T03:59:24.618Z,19.08
2022-08-05T04:00:23.283Z,19.08
2022-08-05T04:01:23.278Z,19.05
2022-08-05T04:03:28.412Z,19.07
2022-08-05T04:04:23.112Z,19.11
2022-08-05T04:05:23.240Z,19.09
2022-08-05T04:06:23.026Z,19.16
2022-08-05T04:07:24.916Z,19.04
2022-08-05T04:08:35.011Z,19.07
2022-08-05T04:09:26.486Z,19.07
2022-08-05T04:10:22.848Z,19.08
2022-08-05T04:11:22.807Z,19.04
2022-08-05T04:12:23.657Z,19.05
2022-08-05T04:13:22.717Z,19.15
2022-08-05T04:14:30.554Z,19.05
2022-08-05T04:15:24.368Z,19.09
2022-08-05T04:16:25.085Z,19.01
2022-08-05T04:17:22.768Z,19.08
2022-08-05T04:18:25.539Z,19.08
2022-08-05T04:19:22.457Z,19.05
2022-08-05T04:20:23.153Z,19.05
2022-08-05T04:22:10.163Z,19.09
2022-08-05T04:22:22.327Z,19.11
2022-08-05T04:24:05.783Z,19.07
2022-08-05T04:24:22.761Z,19.12
2022-08-05T04:25:38.492Z,19.19
2022-08-05T04:26:22.156Z,19.08
2022-08-05T04:27:41.743Z,19.09
2022-08-05T04:28:28.496Z,19.26
2022-08-05T04:29:22.025Z,19.19
2022-08-05T04:30:21.982Z,19.16
2022-08-05T04:31:21.940Z,19.23
2022-08-05T04:32:30.727Z,19.16
2022-08-05T04:33:54.244Z,19.16
2022-08-05T04:34:33.619Z,19.16
2022-08-05T04:35:21.764Z,19.11
2022-08-05T04:36:45.692Z,19.19
2022-08-05T04:37:23.023Z,19.19
2022-08-05T04:38:21.634Z,19.16
2022-08-05T04:39:21.704Z,19.17
2022-08-05T04:40:21.548Z,19.22
2022-08-05T04:41:21.503Z,19.26
2022-08-05T04:42:21.463Z,19.22
2022-08-05T04:43:21.926Z,19.19
2022-08-05T04:44:29.354Z,19.24
2022-08-05T04:45:31.176Z,19.24
2022-08-05T04:46:28.164Z,19.29
2022-08-05T04:47:21.513Z,19.27
2022-08-05T04:48:26.948Z,19.22
2022-08-05T04:49:24.586Z,19.26
2022-08-05T04:50:34.441Z,19.27
2022-08-05T04:51:21.068Z,19.27
2022-08-05T04:52:21.027Z,19.29
2022-08-05T04:53:20.982Z,19.22
2022-08-05T04:54:20.941Z,19.22
2022-08-05T04:56:00.075Z,19.24
2022-08-05T04:56:34.537Z,19.22
2022-08-05T04:57:20.960Z,19.23
2022-08-05T04:58:21.715Z,19.26
2022-08-05T04:59:33.529Z,19.23
2022-08-05T05:00:23.643Z,19.27
2022-08-05T05:02:05.827Z,19.24
2022-08-05T05:02:37.112Z,19.22
2022-08-05T05:03:20.553Z,19.26
2022-08-05T05:04:20.509Z,19.26
2022-08-05T05:05:28.542Z,19.26
2022-08-05T05:06:38.918Z,19.27
2022-08-05T05:07:29.211Z,19.26
2022-08-05T05:08:29.999Z,19.30
2022-08-05T05:09:20.294Z,19.34
2022-08-05T05:10:20.248Z,19.27
2022-08-05T05:11:20.203Z,19.26
2022-08-05T05:12:20.165Z,19.30
2022-08-05T05:13:20.116Z,19.35
2022-08-05T05:14:28.013Z,19.26
2022-08-05T05:15:56.819Z,19.26
2022-08-05T05:16:19.986Z,19.32
2022-08-05T05:17:23.886Z,19.22
2022-08-05T05:18:28.683Z,19.20
2022-08-05T05:19:23.574Z,19.23
2022-08-05T05:20:20.472Z,19.24
2022-08-05T05:21:19.770Z,19.22
2022-08-05T05:22:23.888Z,19.22
2022-08-05T05:23:20.248Z,19.32
2022-08-05T05:24:19.640Z,19.23
2022-08-05T05:25:19.597Z,19.22
2022-08-05T05:26:19.556Z,19.27
2022-08-05T05:27:19.520Z,19.22
2022-08-05T05:28:19.619Z,19.15
2022-08-05T05:29:19.421Z,19.26
2022-08-05T05:30:31.443Z,19.20
2022-08-05T05:31:19.336Z,19.23
2022-08-05T05:32:19.294Z,19.24
2022-08-05T05:33:23.412Z,19.27
2022-08-05T05:34:24.174Z,19.26
2022-08-05T05:35:19.983Z,19.20
2022-08-05T05:36:19.119Z,19.23
2022-08-05T05:37:19.076Z,19.29
2022-08-05T05:38:27.119Z,19.29
2022-08-05T05:39:19.407Z,19.29
2022-08-05T05:40:19.845Z,19.27
2022-08-05T05:41:18.916Z,19.29
2022-08-05T05:42:18.860Z,19.24
2022-08-05T05:43:28.144Z,19.24
2022-08-05T05:44:36.497Z,19.19
2022-08-05T05:46:19.022Z,19.30
2022-08-05T05:47:21.977Z,19.23
2022-08-05T05:48:18.606Z,19.30
2022-08-05T05:49:22.480Z,19.29
2022-08-05T05:50:19.727Z,19.29
2022-08-05T05:51:18.473Z,19.27
2022-08-05T05:52:28.696Z,19.27
2022-08-05T05:53:22.628Z,19.26
2022-08-05T05:54:18.339Z,19.23
2022-08-05T05:55:18.299Z,19.23
2022-08-05T05:56:26.150Z,19.27
2022-08-05T05:57:19.171Z,19.16
2022-08-05T05:58:18.163Z,19.24
2022-08-05T05:59:18.124Z,19.16
2022-08-05T06:00:18.081Z,19.17
2022-08-05T06:01:18.045Z,19.26
2022-08-05T06:02:32.664Z,19.23
2022-08-05T06:03:40.719Z,19.19
2022-08-05T06:04:17.955Z,19.19
2022-08-05T06:05:17.941Z,19.19
2022-08-05T06:06:17.819Z,19.07
2022-08-05T06:07:17.779Z,19.05
2022-08-05T06:08:32.301Z,19.15
2022-08-05T06:09:25.662Z,19.08
2022-08-05T06:10:17.647Z,19.04
2022-08-05T06:11:17.611Z,19.09
2022-08-05T06:12:17.556Z,19.05
2022-08-05T06:13:17.516Z,19.07
2022-08-05T06:14:17.475Z,18.97
2022-08-05T06:15:24.251Z,18.98
2022-08-05T06:16:28.783Z,19.08
2022-08-05T06:17:24.254Z,19.09
2022-08-05T06:18:17.297Z,18.98
2022-08-05T06:19:26.107Z,19.05
2022-08-05T06:20:21.453Z,18.97
2022-08-05T06:21:18.800Z,18.97
2022-08-05T06:22:17.125Z,18.96
2022-08-05T06:23:17.084Z,18.97
2022-08-05T06:24:17.035Z,18.97
2022-08-05T06:25:24.895Z,18.88
2022-08-05T06:26:23.832Z,18.97
2022-08-05T06:28:09.311Z,18.92
2022-08-05T06:28:21.532Z,18.85
2022-08-05T06:29:42.911Z,18.92
2022-08-05T06:30:20.082Z,18.81
2022-08-05T06:31:18.131Z,18.86
2022-08-05T06:32:26.434Z,18.96
2022-08-05T06:33:19.233Z,18.86
2022-08-05T06:34:16.602Z,18.86
2022-08-05T06:36:02.789Z,18.83
2022-08-05T06:36:16.515Z,18.88
2022-08-05T06:37:16.564Z,18.88
2022-08-05T06:38:16.433Z,18.94
2022-08-05T06:39:16.449Z,18.89
2022-08-05T06:40:20.934Z,18.79
2022-08-05T06:41:16.300Z,18.94
2022-08-05T06:42:16.254Z,18.82
2022-08-05T06:43:59.084Z,18.82
2022-08-05T06:44:16.166Z,18.82
2022-08-05T06:45:21.175Z,18.85
2022-08-05T06:46:16.080Z,18.71
2022-08-05T06:47:29.880Z,18.76
2022-08-05T06:48:53.408Z,18.81
2022-08-05T06:49:15.953Z,18.74
2022-08-05T06:50:17.352Z,18.74
2022-08-05T06:51:25.238Z,18.71
2022-08-05T06:52:37.291Z,18.78
2022-08-05T06:53:22.474Z,18.74
2022-08-05T06:54:18.953Z,18.82
2022-08-05T06:55:15.692Z,18.70
2022-08-05T06:56:25.955Z,18.76
2022-08-05T06:58:03.547Z,18.82
2022-08-05T06:58:29.826Z,18.71
2022-08-05T06:59:15.517Z,18.79
2022-08-05T07:00:15.470Z,18.70
2022-08-05T07:01:15.471Z,18.79
2022-08-05T07:02:15.385Z,18.71
2022-08-05T07:03:15.351Z,18.78
2022-08-05T07:04:15.298Z,18.81
2022-08-05T07:05:19.129Z,18.74
2022-08-05T07:06:15.390Z,18.70
2022-08-05T07:07:15.293Z,18.74
2022-08-05T07:08:15.122Z,18.79
2022-08-05T07:09:15.080Z,18.78
2022-08-05T07:10:16.494Z,18.79
2022-08-05T07:11:15.777Z,18.73
2022-08-05T07:12:14.949Z,18.73
2022-08-05T07:13:14.906Z,18.83
2022-08-05T07:14:20.607Z,18.82
2022-08-05T07:15:34.118Z,18.79
2022-08-05T07:17:56.999Z,18.79
2022-08-05T07:17:59.254Z,18.82
2022-08-05T07:18:20.423Z,18.79
2022-08-05T07:19:16.069Z,18.79
2022-08-05T07:20:33.103Z,18.79
2022-08-05T07:21:14.556Z,18.78
2022-08-05T07:22:15.897Z,18.83
2022-08-05T07:23:26.106Z,18.81
2022-08-05T07:24:14.425Z,18.79
2022-08-05T07:25:22.676Z,18.81
2022-08-05T07:26:16.405Z,18.79
2022-08-05T07:27:14.297Z,18.81
2022-08-05T07:28:17.448Z,18.81
2022-08-05T07:29:14.210Z,18.76
2022-08-05T07:30:22.741Z,18.81
2022-08-05T07:31:14.122Z,18.74
2022-08-05T07:32:14.757Z,18.74
2022-08-05T07:33:15.968Z,18.68
2022-08-05T07:34:14.095Z,18.70
2022-08-05T07:36:04.594Z,18.68
2022-08-05T07:36:20.643Z,18.64
2022-08-05T07:37:13.861Z,18.71
2022-08-05T07:38:32.483Z,18.70
2022-08-05T07:39:24.857Z,18.61
2022-08-05T07:40:31.870Z,18.58
2022-08-05T07:42:07.172Z,18.53
2022-08-05T07:42:16.184Z,18.55
2022-08-05T07:43:14.760Z,18.60
2022-08-05T07:44:18.725Z,18.71
2022-08-05T07:45:13.512Z,18.60
2022-08-05T07:46:23.458Z,18.60
2022-08-05T07:47:13.481Z,18.60
2022-08-05T07:48:13.437Z,18.68
2022-08-05T07:49:13.337Z,18.71
2022-08-05T07:50:16.680Z,18.67
2022-08-05T07:51:23.848Z,18.60
2022-08-05T07:52:13.206Z,18.71
2022-08-05T07:53:13.257Z,18.70
2022-08-05T07:54:13.119Z,18.66
2022-08-05T07:55:15.702Z,18.64
2022-08-05T07:57:01.770Z,18.64
2022-08-05T07:58:02.866Z,18.60
2022-08-05T07:58:58.886Z,18.68
2022-08-05T07:59:56.304Z,18.67
2022-08-05T08:00:56.345Z,18.57
2022-08-05T08:01:57.860Z,18.55
2022-08-05T08:03:14.597Z,18.60
2022-08-05T08:03:56.124Z,18.60
2022-08-05T08:04:56.085Z,18.53
2022-08-05T08:05:56.036Z,18.53
2022-08-05T08:06:55.996Z,18.48
2022-08-05T08:07:59.257Z,18.70
2022-08-05T08:08:55.910Z,18.67
2022-08-05T08:09:55.872Z,18.60
2022-08-05T08:10:55.823Z,18.57
2022-08-05T08:12:01.800Z,18.52
2022-08-05T08:12:55.733Z,18.60
2022-08-05T08:14:01.073Z,18.64
2022-08-05T08:14:55.646Z,18.58
2022-08-05T08:16:35.713Z,18.53
2022-08-05T08:16:55.562Z,18.58
2022-08-05T08:17:55.513Z,18.63
2022-08-05T08:18:55.471Z,18.64
2022-08-05T08:20:44.573Z,18.58
2022-08-05T08:21:02.143Z,18.57
2022-08-05T08:21:55.343Z,18.71
2022-08-05T08:22:55.593Z,18.63
2022-08-05T08:24:01.353Z,18.53
2022-08-05T08:24:55.210Z,18.60
2022-08-05T08:26:00.503Z,18.60
2022-08-05T08:26:55.131Z,18.66
2022-08-05T08:27:55.076Z,18.53
2022-08-05T08:28:59.186Z,18.55
2022-08-05T08:30:05.986Z,18.57
2022-08-05T08:30:54.951Z,18.45
2022-08-05T08:31:54.911Z,18.46
2022-08-05T08:32:54.862Z,18.43
2022-08-05T08:33:54.818Z,18.43
2022-08-05T08:34:54.774Z,18.36
2022-08-05T08:36:12.798Z,18.43
2022-08-05T08:37:00.286Z,18.48
2022-08-05T08:37:56.434Z,18.46
2022-08-05T08:38:54.642Z,18.45
2022-08-05T08:39:54.652Z,18.48
2022-08-05T08:40:54.510Z,18.45
2022-08-05T08:42:00.143Z,18.45
2022-08-05T08:42:54.647Z,18.45
2022-08-05T08:45:23.973Z,18.43
2022-08-05T08:45:24.143Z,18.53
2022-08-05T08:45:54.291Z,18.43
2022-08-05T08:46:54.248Z,18.43
2022-08-05T08:48:07.113Z,18.42
2022-08-05T08:49:06.229Z,18.52
2022-08-05T08:50:23.288Z,18.49
2022-08-05T08:51:07.717Z,18.41
2022-08-05T08:52:04.247Z,18.49
2022-08-05T08:52:53.984Z,18.51
2022-08-05T08:53:53.940Z,18.51
2022-08-05T08:54:53.903Z,18.58
2022-08-05T08:56:03.920Z,18.58
2022-08-05T08:56:53.814Z,18.55
2022-08-05T08:57:58.320Z,18.57
2022-08-05T08:58:53.724Z,18.51
2022-08-05T08:59:53.679Z,18.53
2022-08-05T09:00:53.731Z,18.58
2022-08-05T09:01:56.983Z,18.58
2022-08-05T09:02:53.557Z,18.60
2022-08-05T09:03:57.566Z,18.64
2022-08-05T09:05:16.077Z,18.78
2022-08-05T09:06:07.997Z,18.71
2022-08-05T09:06:53.374Z,18.71
2022-08-05T09:07:57.393Z,18.73
2022-08-05T09:08:53.287Z,18.71
2022-08-05T09:09:53.242Z,18.64
2022-08-05T09:10:53.200Z,18.71
2022-08-05T09:11:55.319Z,18.70
2022-08-05T09:12:53.250Z,18.73
2022-08-05T09:14:10.183Z,18.83
2022-08-05T09:14:57.151Z,18.78
2022-08-05T09:15:52.980Z,18.79
2022-08-05T09:16:52.954Z,18.94
2022-08-05T09:17:53.163Z,18.83
2022-08-05T09:18:52.868Z,18.89
2022-08-05T09:20:01.682Z,18.83
2022-08-05T09:20:52.763Z,18.96
2022-08-05T09:22:18.394Z,18.96
2022-08-05T09:22:52.676Z,19.00
2022-08-05T09:23:52.632Z,18.98
2022-08-05T09:24:52.595Z,18.97
2022-08-05T09:26:02.843Z,19.04
2022-08-05T09:26:52.504Z,19.05
2022-08-05T09:28:05.998Z,19.04
2022-08-05T09:28:52.416Z,19.09
2022-08-05T09:29:52.370Z,19.08
2022-08-05T09:30:52.333Z,19.04
2022-08-05T09:32:39.967Z,19.04
2022-08-05T09:32:52.979Z,19.09
2022-08-05T09:33:52.195Z,19.05
2022-08-05T09:34:52.157Z,18.98
2022-08-05T09:35:52.109Z,18.96
2022-08-05T09:36:55.351Z,19.07
2022-08-05T09:38:17.234Z,19.05
2022-08-05T09:38:51.980Z,19.04
2022-08-05T09:39:52.316Z,19.09
2022-08-05T09:40:53.845Z,19.07
2022-08-05T09:41:56.110Z,19.08
2022-08-05T09:42:51.811Z,19.05
2022-08-05T09:43:51.766Z,19.17
2022-08-05T09:44:51.723Z,19.16
2022-08-05T09:46:06.297Z,19.15
2022-08-05T09:46:57.962Z,19.22
2022-08-05T09:47:56.246Z,19.29
2022-08-05T09:49:06.505Z,19.26
2022-08-05T09:50:00.798Z,19.32
2022-08-05T09:50:51.458Z,19.35
2022-08-05T09:51:51.414Z,19.42
2022-08-05T09:52:52.905Z,19.44
2022-08-05T09:53:55.207Z,19.52
2022-08-05T09:54:51.289Z,19.56
2022-08-05T09:55:57.872Z,19.59
2022-08-05T09:56:51.785Z,19.57
2022-08-05T09:57:54.681Z,19.67
2022-08-05T09:58:51.114Z,19.63
2022-08-05T09:59:51.070Z,19.75
2022-08-05T10:00:51.057Z,19.63
2022-08-05T10:01:58.151Z,19.78
2022-08-05T10:02:50.976Z,19.74
2022-08-05T10:03:59.124Z,19.82
2022-08-05T10:04:50.852Z,19.92
2022-08-05T10:05:50.808Z,20.04
2022-08-05T10:06:59.056Z,19.99
2022-08-05T10:08:36.917Z,20.07
2022-08-05T10:08:55.316Z,20.15
2022-08-05T10:09:50.634Z,20.11
2022-08-05T10:10:54.564Z,20.22
2022-08-05T10:11:50.551Z,20.24
2022-08-05T10:12:50.577Z,20.19
2022-08-05T10:13:54.645Z,20.37
2022-08-05T10:14:50.422Z,20.34
2022-08-05T10:15:50.376Z,20.32
2022-08-05T10:16:53.129Z,20.46
2022-08-05T10:17:56.541Z,20.49
2022-08-05T10:18:50.271Z,20.52
2022-08-05T10:20:04.431Z,20.52
2022-08-05T10:20:50.165Z,20.58
2022-08-05T10:21:50.118Z,20.67
2022-08-05T10:22:51.019Z,20.73
2022-08-05T10:23:59.445Z,20.71
2022-08-05T10:24:50.633Z,20.73
2022-08-05T10:25:49.946Z,20.82
2022-08-05T10:26:52.162Z,20.73
2022-08-05T10:28:13.001Z,20.85
2022-08-05T10:28:49.907Z,21.01
2022-08-05T10:30:07.143Z,20.90
2022-08-05T10:32:47.342Z,20.95
2022-08-05T10:32:55.538Z,21.15
2022-08-05T10:32:59.930Z,21.22
2022-08-05T10:33:54.318Z,21.28
2022-08-05T10:34:49.565Z,21.32
2022-08-05T10:35:59.290Z,21.30
2022-08-05T10:36:49.479Z,21.38
2022-08-05T10:37:49.434Z,21.54
2022-08-05T10:38:49.393Z,21.51
2022-08-05T10:40:03.845Z,21.62
2022-08-05T10:40:49.364Z,21.66
2022-08-05T10:41:49.302Z,21.77
2022-08-05T10:43:35.922Z,21.91
2022-08-05T10:44:32.573Z,21.96
2022-08-05T10:45:41.613Z,22.01
2022-08-05T10:46:32.477Z,22.07
2022-08-05T10:47:32.438Z,22.19
2022-08-05T10:48:36.066Z,22.23
2022-08-05T10:49:33.460Z,22.22
2022-08-05T10:50:36.895Z,22.31
2022-08-05T10:51:32.267Z,22.47
2022-08-05T10:52:32.225Z,22.46
2022-08-05T10:53:32.184Z,22.40
2022-08-05T10:54:34.982Z,22.38
2022-08-05T10:55:38.561Z,22.51
2022-08-05T10:56:32.054Z,22.53
2022-08-05T10:57:33.817Z,22.58
2022-08-05T10:58:47.846Z,22.65
2022-08-05T11:00:04.211Z,22.77
2022-08-05T11:00:31.891Z,22.83
2022-08-05T11:01:54.578Z,22.92
2022-08-05T11:02:34.894Z,23.06
2022-08-05T11:03:31.831Z,23.04
2022-08-05T11:04:31.845Z,23.10
2022-08-05T11:05:31.783Z,23.10
2022-08-05T11:06:31.640Z,23.23
2022-08-05T11:07:32.930Z,23.23
2022-08-05T11:08:38.003Z,23.21
2022-08-05T11:17:57.696Z,23.82
2022-08-05T11:18:43.583Z,23.95
2022-08-05T11:20:11.151Z,24.11
2022-08-05T11:20:43.910Z,24.14
2022-08-05T11:21:49.391Z,24.09
2022-08-05T11:22:42.842Z,24.25
2022-08-05T11:24:05.129Z,24.25
2022-08-05T11:24:50.557Z,24.25
2022-08-05T11:26:04.282Z,24.32
2022-08-05T11:26:43.463Z,24.26
2022-08-05T11:27:51.288Z,24.26
2022-08-05T11:28:42.598Z,24.22
2022-08-05T11:29:42.561Z,24.31
2022-08-05T11:30:42.509Z,24.26
2022-08-05T11:31:57.234Z,24.31
2022-08-05T11:32:42.429Z,24.31
2022-08-05T11:33:47.881Z,24.32
2022-08-05T11:34:51.969Z,24.24
2022-08-05T11:36:02.821Z,24.28
2022-08-05T11:36:42.891Z,24.34
2022-08-05T11:38:30.912Z,24.38
2022-08-05T11:38:45.332Z,24.44
2022-08-05T11:39:42.203Z,24.38
2022-08-05T11:40:42.100Z,24.46
2022-08-05T11:42:00.835Z,24.38
2022-08-05T11:42:42.015Z,24.58
2022-08-05T11:44:06.777Z,24.53
2022-08-05T11:44:53.696Z,24.53
2022-08-05T12:18:00.815Z,26.48
2022-08-05T12:18:38.693Z,26.60
2022-08-05T12:20:26.325Z,26.79
2022-08-05T12:20:36.988Z,26.82
2022-08-05T12:21:39.192Z,27.04
2022-08-05T12:22:36.908Z,27.16
2022-08-05T12:23:36.868Z,27.34
2022-08-05T12:24:36.827Z,27.45
2022-08-05T12:25:36.791Z,27.63
2022-08-05T12:26:36.747Z,27.64
2022-08-05T12:27:37.059Z,27.63
2022-08-05T12:28:37.009Z,27.66
2022-08-05T12:29:38.871Z,27.67
2022-08-05T12:30:36.585Z,27.60
2022-08-05T12:31:46.126Z,27.58
2022-08-05T12:32:36.510Z,27.64
2022-08-05T12:33:38.532Z,27.50
2022-08-05T12:34:36.431Z,27.30
2022-08-05T12:35:37.169Z,27.23
2022-08-05T12:36:36.420Z,27.13
2022-08-05T12:37:36.308Z,27.08
2022-08-05T12:38:36.265Z,27.03
2022-08-05T12:39:38.678Z,26.91
2022-08-05T12:40:36.188Z,26.60
2022-08-05T12:41:36.148Z,26.46
2022-08-05T12:42:36.107Z,26.34
2022-08-05T12:43:36.067Z,26.16
2022-08-05T12:44:36.025Z,26.18
2022-08-05T12:45:42.660Z,26.01
2022-08-05T12:46:35.945Z,25.88
2022-08-05T12:47:35.912Z,25.81
2022-08-05T12:48:35.863Z,25.83
2022-08-05T12:50:05.083Z,25.74
2022-08-05T12:50:35.783Z,25.63
2022-08-05T12:52:13.901Z,25.81
2022-08-05T12:52:38.891Z,26.06
2022-08-05T12:53:37.079Z,26.26
2022-08-05T12:54:35.622Z,26.86
2022-08-05T12:55:35.918Z,27.63
2022-08-05T12:56:37.413Z,28.33
2022-08-05T12:58:49.460Z,29.83
2022-08-05T12:58:50.869Z,29.09
2022-08-05T13:00:08.914Z,30.16
2022-08-05T13:02:00.326Z,29.95
2022-08-05T13:02:01.082Z,30.55
2022-08-05T13:02:35.346Z,30.11
2022-08-05T13:03:39.053Z,29.80
2022-08-05T13:04:35.215Z,29.42
2022-08-05T13:05:37.380Z,29.09
2022-08-05T13:06:35.135Z,28.78
2022-08-05T13:08:00.078Z,28.50
2022-08-05T13:08:35.054Z,28.23
2022-08-05T13:09:35.017Z,28.20
2022-08-05T13:10:34.975Z,27.88
2022-08-05T13:12:01.829Z,27.78
2022-08-05T13:12:34.894Z,27.64
2022-08-05T13:14:05.835Z,27.48
2022-08-05T13:14:36.528Z,27.30
2022-08-05T13:15:42.077Z,27.18
2022-08-05T13:16:34.733Z,26.98
2022-08-05T13:17:41.337Z,26.97
2022-08-05T13:18:34.650Z,26.81
2022-08-05T13:19:51.043Z,26.70
2022-08-05T13:20:34.571Z,26.52
2022-08-05T13:21:38.102Z,26.46
2022-08-05T13:22:34.495Z,26.34
2022-08-05T13:23:34.449Z,26.23
2022-08-05T13:24:57.632Z,26.19
2022-08-05T13:25:52.412Z,26.27
2022-08-05T13:26:34.326Z,26.13
2022-08-05T13:27:37.999Z,26.01
2022-08-05T13:28:34.246Z,25.91
2022-08-05T13:29:37.599Z,25.88
2022-08-05T13:30:37.035Z,25.76
2022-08-05T13:32:05.122Z,25.73
2022-08-05T13:32:39.175Z,25.59
2022-08-05T13:34:22.397Z,25.51
2022-08-05T13:34:34.005Z,25.40
2022-08-05T13:35:47.625Z,25.37
2022-08-05T13:36:33.921Z,25.24
2022-08-05T13:37:34.761Z,25.19
2022-08-05T13:38:36.305Z,25.12